Time;durP1;ratioP1;P1;durP2;ratioP2;P2;SDS_P1;SDS_P2;PMS_P1;PMS_P2;Temp;Humidity;BMP_temperature;BMP_pressure;BME280_temperature;BME280_humidity;BME280_pressure;Samples;Min_cycle;Max_cycle;Signal;HPM_P1;HPM_P2
2024/02/27 00:00:26;;;;;;;5.23;5.13;;;;;;;;;;5024672;28;20550;-69
2024/02/27 00:02:53;;;;;;;5.20;5.10;;;;;;;;;;5021319;28;20466;-69
2024/02/27 00:05:22;;;;;;;5.63;5.53;;;;;;;;;;5021005;28;20502;-70
2024/02/27 00:07:49;;;;;;;5.40;5.30;;;;;;;;;;5026189;28;20476;-72
2024/02/27 00:10:16;;;;;;;5.53;5.43;;;;;;;;;;5024493;28;20469;-71
2024/02/27 00:12:44;;;;;;;5.40;5.30;;;;;;;;;;5027475;28;20965;-69
2024/02/27 00:15:11;;;;;;;5.27;5.17;;;;;;;;;;5024620;28;20605;-69
2024/02/27 00:17:39;;;;;;;5.60;5.50;;;;;;;;;;5028231;28;20456;-70
2024/02/27 00:20:07;;;;;;;4.73;4.73;;;;;;;;;;5028219;28;21022;-71
2024/02/27 00:22:35;;;;;;;5.60;5.50;;;;;;;;;;5022643;28;20473;-71
2024/02/27 00:25:02;;;;;;;5.40;5.30;;;;;;;;;;5024016;28;20509;-70
2024/02/27 00:27:30;;;;;;;5.50;5.40;;;;;;;;;;5024473;28;20481;-70
2024/02/27 00:29:57;;;;;;;5.47;5.37;;;;;;;;;;5028091;28;20481;-72
2024/02/27 00:32:24;;;;;;;4.90;4.90;;;;;;;;;;5027697;28;20472;-70
2024/02/27 00:34:51;;;;;;;5.20;5.10;;;;;;;;;;5023793;28;21066;-70
2024/02/27 00:37:18;;;;;;;5.70;5.60;;;;;;;;;;5027921;28;20461;-70
2024/02/27 00:39:47;;;;;;;5.60;5.50;;;;;;;;;;5026630;28;20553;-70
2024/02/27 00:42:14;;;;;;;5.27;5.17;;;;;;;;;;5020248;28;22383;-72
2024/02/27 00:44:45;;;;;;;5.60;5.50;;;;;;;;;;5027600;28;20488;-71
2024/02/27 00:47:12;;;;;;;5.23;5.13;;;;;;;;;;5025260;28;21015;-70
2024/02/27 00:49:40;;;;;;;5.77;5.67;;;;;;;;;;5027481;28;20532;-71
2024/02/27 00:52:08;;;;;;;5.80;5.70;;;;;;;;;;5024588;28;20540;-70
2024/02/27 00:54:35;;;;;;;5.70;5.60;;;;;;;;;;5012523;28;20472;-70
2024/02/27 00:57:04;;;;;;;6.10;6.00;;;;;;;;;;4992468;28;20968;-70
2024/02/27 00:59:31;;;;;;;5.43;5.33;;;;;;;;;;4993133;28;20468;-71
2024/02/27 01:01:58;;;;;;;6.20;6.10;;;;;;;;;;4994194;28;21723;-70
2024/02/27 01:04:26;;;;;;;6.10;6.00;;;;;;;;;;4992576;28;20832;-70
2024/02/27 01:06:53;;;;;;;6.20;6.10;;;;;;;;;;4992985;28;21102;-69
2024/02/27 01:09:20;;;;;;;6.40;6.30;;;;;;;;;;4993199;28;20469;-71
2024/02/27 01:11:47;;;;;;;6.80;6.70;;;;;;;;;;4992195;28;20466;-70
2024/02/27 01:14:15;;;;;;;7.40;7.30;;;;;;;;;;4992944;28;20469;-71
2024/02/27 01:16:43;;;;;;;7.13;7.03;;;;;;;;;;4991881;28;20466;-71
2024/02/27 01:19:10;;;;;;;6.83;6.73;;;;;;;;;;4992896;28;20822;-71
2024/02/27 01:21:37;;;;;;;6.90;6.80;;;;;;;;;;4992355;28;20472;-71
2024/02/27 01:24:04;;;;;;;7.60;7.50;;;;;;;;;;4992794;28;20469;-70
2024/02/27 01:26:32;;;;;;;7.43;7.33;;;;;;;;;;4993277;28;20823;-70
2024/02/27 01:29:00;;;;;;;6.77;6.67;;;;;;;;;;4993141;28;20498;-70
2024/02/27 01:31:29;;;;;;;7.07;6.97;;;;;;;;;;4994888;28;20477;-70
2024/02/27 01:33:56;;;;;;;7.17;7.07;;;;;;;;;;4993003;28;20538;-70
2024/02/27 01:36:23;;;;;;;7.40;7.30;;;;;;;;;;4995436;28;20467;-71
2024/02/27 01:38:50;;;;;;;7.60;7.50;;;;;;;;;;4993358;28;20506;-70
2024/02/27 01:41:17;;;;;;;7.30;7.20;;;;;;;;;;4992942;28;20936;-71
2024/02/27 01:43:44;;;;;;;7.00;6.90;;;;;;;;;;4993017;28;20475;-71
2024/02/27 01:46:14;;;;;;;7.07;6.97;;;;;;;;;;4992993;28;20527;-70
2024/02/27 01:48:43;;;;;;;7.00;6.90;;;;;;;;;;4993663;28;20457;-71
2024/02/27 01:51:11;;;;;;;7.20;7.10;;;;;;;;;;4992674;28;21361;-71
2024/02/27 01:53:38;;;;;;;7.10;7.00;;;;;;;;;;4992747;28;20465;-71
2024/02/27 01:56:06;;;;;;;7.00;6.90;;;;;;;;;;5022638;28;20466;-70
2024/02/27 01:58:32;;;;;;;6.90;6.80;;;;;;;;;;5027642;28;20453;-70
2024/02/27 02:01:02;;;;;;;6.80;6.70;;;;;;;;;;5022857;28;20555;-71
2024/02/27 02:03:30;;;;;;;6.83;6.73;;;;;;;;;;5025421;28;20484;-70
2024/02/27 02:05:58;;;;;;;6.70;6.60;;;;;;;;;;5028515;28;20861;-70
2024/02/27 02:08:26;;;;;;;7.40;7.30;;;;;;;;;;5030526;28;21056;-70
2024/02/27 02:10:53;;;;;;;6.90;6.80;;;;;;;;;;5027651;28;20472;-70
2024/02/27 02:13:21;;;;;;;6.73;6.63;;;;;;;;;;5030480;28;21384;-70
2024/02/27 02:15:48;;;;;;;6.67;6.57;;;;;;;;;;5025324;28;20508;-70
2024/02/27 02:18:15;;;;;;;6.50;6.40;;;;;;;;;;5026610;28;20467;-70
2024/02/27 02:20:44;;;;;;;6.33;6.23;;;;;;;;;;5027272;28;20453;-69
2024/02/27 02:23:11;;;;;;;6.60;6.50;;;;;;;;;;5026946;28;20473;-70
2024/02/27 02:25:38;;;;;;;6.70;6.60;;;;;;;;;;5029974;28;20489;-70
2024/02/27 02:28:06;;;;;;;6.17;6.07;;;;;;;;;;5029095;28;20453;-69
2024/02/27 02:30:33;;;;;;;6.30;6.20;;;;;;;;;;5025503;28;20495;-70
2024/02/27 02:33:01;;;;;;;6.30;6.20;;;;;;;;;;5024720;28;20466;-70
2024/02/27 02:35:28;;;;;;;6.23;6.13;;;;;;;;;;5030080;28;20836;-71
2024/02/27 02:37:56;;;;;;;6.30;6.20;;;;;;;;;;5029041;28;20476;-71
2024/02/27 02:40:25;;;;;;;6.50;6.40;;;;;;;;;;5028789;28;20465;-70
2024/02/27 02:42:52;;;;;;;6.13;6.03;;;;;;;;;;5025677;28;20553;-69
2024/02/27 02:45:19;;;;;;;6.03;5.93;;;;;;;;;;5029836;28;21183;-71
2024/02/27 02:47:46;;;;;;;6.00;5.90;;;;;;;;;;5030321;28;20472;-70
2024/02/27 02:50:13;;;;;;;6.10;6.00;;;;;;;;;;5023960;28;20487;-70
2024/02/27 02:52:41;;;;;;;6.20;6.10;;;;;;;;;;5025591;28;20556;-69
2024/02/27 02:55:10;;;;;;;6.10;6.00;;;;;;;;;;5024153;28;20467;-70
2024/02/27 02:57:38;;;;;;;5.90;5.80;;;;;;;;;;5026147;28;20454;-71
2024/02/27 03:00:05;;;;;;;6.50;6.40;;;;;;;;;;5026253;28;20485;-71
2024/02/27 03:02:33;;;;;;;6.47;6.37;;;;;;;;;;5028366;28;20457;-70
2024/02/27 03:05:00;;;;;;;6.60;6.50;;;;;;;;;;5027060;28;20540;-70
2024/02/27 03:07:27;;;;;;;6.70;6.60;;;;;;;;;;5029810;28;20573;-70
2024/02/27 03:09:54;;;;;;;7.27;7.17;;;;;;;;;;5029489;28;20476;-70
2024/02/27 03:12:23;;;;;;;6.77;6.67;;;;;;;;;;5026583;28;20471;-70
2024/02/27 03:14:50;;;;;;;7.03;6.93;;;;;;;;;;5021631;28;20465;-70
2024/02/27 03:17:18;;;;;;;7.70;7.60;;;;;;;;;;5029107;28;20463;-70
2024/02/27 03:19:45;;;;;;;7.17;7.07;;;;;;;;;;5025137;28;20463;-70
2024/02/27 03:22:13;;;;;;;7.27;7.17;;;;;;;;;;5028170;28;21214;-70
2024/02/27 03:24:43;;;;;;;7.10;7.00;;;;;;;;;;5027263;28;20463;-70
2024/02/27 03:27:10;;;;;;;7.20;7.10;;;;;;;;;;5024836;28;20983;-70
2024/02/27 03:29:38;;;;;;;7.27;7.17;;;;;;;;;;5028412;28;20463;-70
2024/02/27 03:32:06;;;;;;;7.20;7.10;;;;;;;;;;5023367;28;20461;-69
2024/02/27 03:34:34;;;;;;;6.90;6.80;;;;;;;;;;5025410;28;20454;-70
2024/02/27 03:37:01;;;;;;;6.83;6.73;;;;;;;;;;5026535;28;20472;-71
2024/02/27 03:39:29;;;;;;;6.80;6.70;;;;;;;;;;5029147;28;20486;-70
2024/02/27 03:41:56;;;;;;;7.90;7.80;;;;;;;;;;5028362;28;20456;-70
2024/02/27 03:44:24;;;;;;;7.10;7.00;;;;;;;;;;5025803;28;20472;-70
2024/02/27 03:46:52;;;;;;;7.73;7.63;;;;;;;;;;5027847;28;20490;-70
2024/02/27 03:49:19;;;;;;;7.33;7.23;;;;;;;;;;5020447;28;20466;-70
2024/02/27 03:51:46;;;;;;;7.83;7.73;;;;;;;;;;5028549;28;20471;-71
2024/02/27 03:54:14;;;;;;;7.80;7.70;;;;;;;;;;5025210;28;20834;-70
2024/02/27 03:56:41;;;;;;;7.80;7.70;;;;;;;;;;5020279;28;20560;-70
2024/02/27 03:59:08;;;;;;;7.30;7.20;;;;;;;;;;5027366;28;20959;-69
2024/02/27 04:01:35;;;;;;;6.87;6.77;;;;;;;;;;5027412;28;20505;-71
2024/02/27 04:04:04;;;;;;;6.87;6.77;;;;;;;;;;5022604;28;20980;-70
2024/02/27 04:06:32;;;;;;;6.77;6.67;;;;;;;;;;5023275;28;20490;-70
2024/02/27 04:08:59;;;;;;;6.97;6.87;;;;;;;;;;5022967;28;20478;-69
2024/02/27 04:11:26;;;;;;;6.63;6.53;;;;;;;;;;5024688;28;21069;-73
2024/02/27 04:13:54;;;;;;;7.37;7.27;;;;;;;;;;5028230;28;20453;-70
2024/02/27 04:16:21;;;;;;;7.07;6.97;;;;;;;;;;5023786;28;20468;-69
2024/02/27 04:18:48;;;;;;;6.53;6.43;;;;;;;;;;5027735;28;20600;-70
2024/02/27 04:21:17;;;;;;;6.90;6.80;;;;;;;;;;5023982;28;20605;-70
2024/02/27 04:23:45;;;;;;;7.10;7.00;;;;;;;;;;5021259;28;20478;-70
2024/02/27 04:26:12;;;;;;;6.93;6.83;;;;;;;;;;5028000;28;20477;-69
2024/02/27 04:28:39;;;;;;;7.10;7.00;;;;;;;;;;5028493;28;20744;-71
2024/02/27 04:31:07;;;;;;;7.10;7.00;;;;;;;;;;5025316;28;20469;-70
2024/02/27 04:33:34;;;;;;;7.37;7.27;;;;;;;;;;5023670;28;20458;-68
2024/02/27 04:36:01;;;;;;;7.10;7.00;;;;;;;;;;5027689;28;20451;-69
2024/02/27 04:38:29;;;;;;;7.20;7.10;;;;;;;;;;5024059;28;20989;-71
2024/02/27 04:40:56;;;;;;;7.77;7.67;;;;;;;;;;5025969;28;20982;-69
2024/02/27 04:43:24;;;;;;;7.80;7.70;;;;;;;;;;5027293;28;20457;-69
2024/02/27 04:45:51;;;;;;;7.60;7.50;;;;;;;;;;5026497;28;20459;-70
2024/02/27 04:48:18;;;;;;;7.30;7.20;;;;;;;;;;5026570;28;20807;-69
2024/02/27 04:50:46;;;;;;;6.80;6.70;;;;;;;;;;5023334;28;20508;-70
2024/02/27 04:53:13;;;;;;;6.90;6.80;;;;;;;;;;5024172;28;20457;-71
2024/02/27 04:55:41;;;;;;;6.40;6.30;;;;;;;;;;5026747;28;20458;-70
2024/02/27 04:58:08;;;;;;;6.80;6.70;;;;;;;;;;5022968;28;20462;-69
2024/02/27 05:00:36;;;;;;;6.10;6.00;;;;;;;;;;5024588;28;21000;-71
2024/02/27 05:03:03;;;;;;;6.20;6.10;;;;;;;;;;5016157;28;20457;-69
2024/02/27 05:05:30;;;;;;;6.70;6.60;;;;;;;;;;5021137;28;20465;-69
2024/02/27 05:07:57;;;;;;;6.50;6.40;;;;;;;;;;5025259;28;20497;-70
2024/02/27 05:10:25;;;;;;;7.10;7.00;;;;;;;;;;5022669;28;20495;-70
2024/02/27 05:12:54;;;;;;;6.90;6.80;;;;;;;;;;5024049;28;20839;-69
2024/02/27 05:15:21;;;;;;;7.00;6.90;;;;;;;;;;5020194;28;20465;-70
2024/02/27 05:17:48;;;;;;;7.00;6.90;;;;;;;;;;5025537;28;21118;-70
2024/02/27 05:20:15;;;;;;;6.70;6.60;;;;;;;;;;5024871;28;20464;-69
2024/02/27 05:22:43;;;;;;;6.60;6.50;;;;;;;;;;5024453;28;20966;-69
2024/02/27 05:25:10;;;;;;;6.83;6.73;;;;;;;;;;5023950;28;21407;-69
2024/02/27 05:27:37;;;;;;;6.90;6.80;;;;;;;;;;5019381;28;20492;-71
2024/02/27 05:30:07;;;;;;;7.30;7.20;;;;;;;;;;5021737;28;20557;-71
2024/02/27 05:32:34;;;;;;;7.80;7.70;;;;;;;;;;5025427;28;20465;-69
2024/02/27 05:35:01;;;;;;;7.37;7.27;;;;;;;;;;5023532;28;20465;-70
2024/02/27 05:37:29;;;;;;;7.00;6.90;;;;;;;;;;5023964;28;20991;-71
2024/02/27 05:39:56;;;;;;;7.33;7.23;;;;;;;;;;5022925;28;20461;-68
2024/02/27 05:42:23;;;;;;;7.23;7.13;;;;;;;;;;5025931;28;20813;-69
2024/02/27 05:44:50;;;;;;;7.60;7.50;;;;;;;;;;5029162;28;20795;-71
2024/02/27 05:47:18;;;;;;;7.50;7.40;;;;;;;;;;5028128;28;20483;-70
2024/02/27 05:49:46;;;;;;;8.07;7.97;;;;;;;;;;5020850;28;20489;-70
2024/02/27 05:52:13;;;;;;;8.10;8.00;;;;;;;;;;5025925;28;21157;-70
2024/02/27 05:54:40;;;;;;;8.13;8.03;;;;;;;;;;5021433;28;20554;-71
2024/02/27 05:57:09;;;;;;;7.90;7.80;;;;;;;;;;5023027;28;20477;-71
2024/02/27 05:59:36;;;;;;;8.13;8.03;;;;;;;;;;5028579;28;20465;-71
2024/02/27 06:02:04;;;;;;;8.10;8.00;;;;;;;;;;5024773;28;20495;-69
2024/02/27 06:04:33;;;;;;;7.57;7.47;;;;;;;;;;5024830;28;20515;-70
2024/02/27 06:07:00;;;;;;;7.80;7.70;;;;;;;;;;5029191;28;20847;-69
2024/02/27 06:09:28;;;;;;;8.30;8.20;;;;;;;;;;5028764;28;20465;-71
2024/02/27 06:11:55;;;;;;;7.70;7.60;;;;;;;;;;5027512;28;20458;-69
2024/02/27 06:14:22;;;;;;;7.67;7.57;;;;;;;;;;5023168;28;20760;-69
2024/02/27 06:16:49;;;;;;;8.10;8.00;;;;;;;;;;5023253;28;20475;-69
2024/02/27 06:19:17;;;;;;;7.60;7.50;;;;;;;;;;5025280;28;20468;-70
2024/02/27 06:24:39;;;;;;;6.93;6.83;;;;;;;;;;5015371;28;20533;-69
2024/02/27 06:27:06;;;;;;;7.20;7.10;;;;;;;;;;5028708;28;20500;-71
2024/02/27 06:29:33;;;;;;;6.37;6.27;;;;;;;;;;5022264;28;21039;-70
2024/02/27 06:32:01;;;;;;;6.40;6.30;;;;;;;;;;5017811;28;20470;-70
2024/02/27 06:34:28;;;;;;;7.10;7.00;;;;;;;;;;5023423;28;20487;-70
2024/02/27 06:36:56;;;;;;;7.03;6.93;;;;;;;;;;5028581;28;20465;-69
2024/02/27 06:39:24;;;;;;;6.93;6.83;;;;;;;;;;5028386;28;20485;-71
2024/02/27 06:41:51;;;;;;;6.60;6.50;;;;;;;;;;5022522;28;20549;-69
2024/02/27 06:44:19;;;;;;;6.53;6.43;;;;;;;;;;5023998;28;20473;-70
2024/02/27 06:46:46;;;;;;;6.30;6.20;;;;;;;;;;5022380;28;20493;-70
2024/02/27 06:49:13;;;;;;;6.50;6.40;;;;;;;;;;5023668;28;20738;-69
2024/02/27 06:51:41;;;;;;;6.60;6.50;;;;;;;;;;5024240;28;20481;-70
2024/02/27 06:54:10;;;;;;;6.10;6.00;;;;;;;;;;5023761;28;20485;-70
2024/02/27 06:56:37;;;;;;;6.70;6.60;;;;;;;;;;5022370;28;20461;-69
2024/02/27 06:59:04;;;;;;;6.40;6.30;;;;;;;;;;5022445;28;20828;-71
2024/02/27 07:01:31;;;;;;;6.80;6.70;;;;;;;;;;5028252;28;20900;-69
2024/02/27 07:03:59;;;;;;;6.60;6.50;;;;;;;;;;5025705;28;20801;-71
2024/02/27 07:06:26;;;;;;;6.93;6.83;;;;;;;;;;5028101;28;20464;-71
2024/02/27 07:08:55;;;;;;;6.67;6.57;;;;;;;;;;5024415;28;20867;-71
2024/02/27 07:11:25;;;;;;;7.00;6.90;;;;;;;;;;5026514;28;20481;-71
2024/02/27 07:13:52;;;;;;;7.20;7.10;;;;;;;;;;5019563;28;20469;-69
2024/02/27 07:16:20;;;;;;;6.80;6.70;;;;;;;;;;5027464;28;20540;-70
2024/02/27 07:18:48;;;;;;;6.50;6.40;;;;;;;;;;5024584;28;20486;-71
2024/02/27 07:21:15;;;;;;;7.03;6.93;;;;;;;;;;5027907;28;20449;-71
2024/02/27 07:23:42;;;;;;;7.37;7.27;;;;;;;;;;5017102;28;20895;-69
2024/02/27 07:26:10;;;;;;;7.70;7.60;;;;;;;;;;5026718;28;20474;-69
2024/02/27 07:28:39;;;;;;;7.50;7.40;;;;;;;;;;5020588;28;20500;-71
2024/02/27 07:31:06;;;;;;;7.73;7.63;;;;;;;;;;5026452;28;20460;-68
2024/02/27 07:33:33;;;;;;;7.40;7.30;;;;;;;;;;5023541;28;20468;-68
2024/02/27 07:36:00;;;;;;;8.37;8.27;;;;;;;;;;5018893;28;20484;-71
2024/02/27 07:38:28;;;;;;;7.97;7.87;;;;;;;;;;5009310;28;20477;-70
2024/02/27 07:40:55;;;;;;;9.10;8.90;;;;;;;;;;5007042;28;20454;-69
2024/02/27 07:43:22;;;;;;;8.30;8.20;;;;;;;;;;5010998;28;20987;-71
2024/02/27 07:45:51;;;;;;;9.47;9.27;;;;;;;;;;5014292;28;20477;-70
2024/02/27 07:48:19;;;;;;;9.40;9.20;;;;;;;;;;5013932;28;20959;-70
2024/02/27 07:50:46;;;;;;;9.70;9.50;;;;;;;;;;5013802;28;20494;-69
2024/02/27 07:53:13;;;;;;;10.20;10.00;;;;;;;;;;5014935;28;20474;-70
2024/02/27 07:55:41;;;;;;;9.93;9.73;;;;;;;;;;5011900;28;20833;-70
2024/02/27 07:58:09;;;;;;;10.00;9.80;;;;;;;;;;5013582;28;20968;-71
2024/02/27 08:00:51;;;;;;;10.47;10.27;;;;;;;;;;5010873;28;20528;-71
2024/02/27 08:03:20;;;;;;;10.57;10.30;;;;;;;;;;5012328;28;20470;-69
2024/02/27 08:05:47;;;;;;;10.80;10.50;;;;;;;;;;5016208;28;21011;-71
2024/02/27 08:08:16;;;;;;;11.10;10.80;;;;;;;;;;5015336;28;20495;-71
2024/02/27 08:10:43;;;;;;;11.37;11.07;;;;;;;;;;5015930;28;20509;-70
2024/02/27 08:13:10;;;;;;;11.57;11.27;;;;;;;;;;5010744;28;22165;-69
2024/02/27 08:15:37;;;;;;;11.60;11.30;;;;;;;;;;5013034;28;20482;-70
2024/02/27 08:18:05;;;;;;;11.47;11.17;;;;;;;;;;5015270;28;20466;-70
2024/02/27 08:20:33;;;;;;;11.80;11.50;;;;;;;;;;5014154;28;20481;-71
2024/02/27 08:23:00;;;;;;;12.20;11.80;;;;;;;;;;5011634;28;20475;-70
2024/02/27 08:25:28;;;;;;;11.50;11.20;;;;;;;;;;5015311;28;20839;-70
2024/02/27 08:27:55;;;;;;;11.80;11.50;;;;;;;;;;5015942;28;20492;-69
2024/02/27 08:30:22;;;;;;;11.60;11.30;;;;;;;;;;5013961;28;20478;-69
2024/02/27 08:32:49;;;;;;;11.83;11.53;;;;;;;;;;5012258;28;20470;-70
2024/02/27 08:35:17;;;;;;;11.80;11.50;;;;;;;;;;5015202;28;20487;-71
2024/02/27 08:37:45;;;;;;;11.10;10.80;;;;;;;;;;5015964;28;21042;-69
2024/02/27 08:40:12;;;;;;;11.33;11.03;;;;;;;;;;5011654;28;20776;-71
2024/02/27 08:42:41;;;;;;;11.60;11.30;;;;;;;;;;5011552;28;20474;-70
2024/02/27 08:45:09;;;;;;;11.93;11.63;;;;;;;;;;5013949;28;20463;-69
2024/02/27 08:47:36;;;;;;;12.33;11.93;;;;;;;;;;5014484;28;20503;-69
2024/02/27 08:50:05;;;;;;;12.20;11.80;;;;;;;;;;5013447;28;20517;-71
2024/02/27 08:52:32;;;;;;;12.30;11.90;;;;;;;;;;5011097;28;20469;-70
2024/02/27 08:55:01;;;;;;;12.13;11.73;;;;;;;;;;5013022;28;20981;-69
2024/02/27 08:57:28;;;;;;;11.87;11.57;;;;;;;;;;5012013;28;20532;-71
2024/02/27 08:59:55;;;;;;;12.40;12.00;;;;;;;;;;5014877;28;20473;-69
2024/02/27 09:02:23;;;;;;;12.60;12.20;;;;;;;;;;5014575;28;20469;-68
2024/02/27 09:05:05;;;;;;;12.60;12.20;;;;;;;;;;5016892;28;20466;-71
2024/02/27 09:07:33;;;;;;;12.40;12.00;;;;;;;;;;5011808;28;20853;-70
2024/02/27 09:10:02;;;;;;;12.80;12.40;;;;;;;;;;5019568;28;21050;-71
2024/02/27 09:12:29;;;;;;;13.80;13.30;;;;;;;;;;5019010;28;20821;-70
2024/02/27 09:14:56;;;;;;;13.10;12.70;;;;;;;;;;5020897;28;20564;-71
2024/02/27 09:17:23;;;;;;;13.00;12.60;;;;;;;;;;5018264;28;21063;-70
2024/02/27 09:19:51;;;;;;;13.37;12.97;;;;;;;;;;5016052;28;20464;-71
2024/02/27 09:22:18;;;;;;;13.60;13.10;;;;;;;;;;5020007;28;21077;-70
2024/02/27 09:24:45;;;;;;;13.67;13.17;;;;;;;;;;5020382;28;20470;-69
2024/02/27 09:27:15;;;;;;;13.00;12.60;;;;;;;;;;5019112;28;20475;-71
2024/02/27 09:29:42;;;;;;;13.57;13.10;;;;;;;;;;5021591;28;20464;-71
2024/02/27 09:32:10;;;;;;;14.23;13.73;;;;;;;;;;5022616;28;20470;-71
2024/02/27 09:34:39;;;;;;;13.30;12.90;;;;;;;;;;5020526;28;20496;-70
2024/02/27 09:37:06;;;;;;;13.87;13.37;;;;;;;;;;5017065;28;20494;-71
2024/02/27 09:39:33;;;;;;;14.03;13.53;;;;;;;;;;5018597;28;20464;-69
2024/02/27 09:42:08;;;;;;;13.90;13.40;;;;;;;;;;5018717;28;20962;-70
2024/02/27 09:44:39;;;;;;;14.23;13.73;;;;;;;;;;5021221;28;20480;-71
2024/02/27 09:47:06;;;;;;;14.17;13.67;;;;;;;;;;5018045;28;20470;-70
2024/02/27 09:49:35;;;;;;;14.30;13.80;;;;;;;;;;5019156;28;20495;-70
2024/02/27 09:52:02;;;;;;;14.23;13.73;;;;;;;;;;5020562;28;20470;-70
2024/02/27 09:54:30;;;;;;;14.17;13.67;;;;;;;;;;5015820;28;20469;-70
2024/02/27 09:56:57;;;;;;;14.27;13.77;;;;;;;;;;5022320;28;20458;-70
2024/02/27 09:59:25;;;;;;;14.57;14.07;;;;;;;;;;5019857;28;20911;-72
2024/02/27 10:01:57;;;;;;;14.10;13.60;;;;;;;;;;5021452;28;20491;-71
2024/02/27 10:04:26;;;;;;;13.80;13.30;;;;;;;;;;5017812;28;20469;-71
2024/02/27 10:06:53;;;;;;;14.70;14.20;;;;;;;;;;5021607;28;20469;-71
2024/02/27 10:09:22;;;;;;;14.27;13.77;;;;;;;;;;5021296;28;20898;-70
2024/02/27 10:11:49;;;;;;;14.30;13.80;;;;;;;;;;5021680;28;20913;-71
2024/02/27 10:14:22;;;;;;;14.13;13.63;;;;;;;;;;5020912;28;20483;-70
2024/02/27 10:16:50;;;;;;;14.90;14.40;;;;;;;;;;5020475;28;20481;-72
2024/02/27 10:19:20;;;;;;;14.97;14.40;;;;;;;;;;5020231;28;20470;-70
2024/02/27 10:21:47;;;;;;;14.70;14.20;;;;;;;;;;5015112;28;20611;-71
2024/02/27 10:24:20;;;;;;;14.40;13.90;;;;;;;;;;5019874;28;20466;-70
2024/02/27 10:26:53;;;;;;;14.53;14.03;;;;;;;;;;5018560;28;20541;-70
2024/02/27 10:29:20;;;;;;;14.23;13.73;;;;;;;;;;5017676;28;20492;-71
2024/02/27 10:31:47;;;;;;;14.50;14.00;;;;;;;;;;5016902;28;20477;-70
2024/02/27 10:34:14;;;;;;;14.20;13.70;;;;;;;;;;5016897;28;20827;-70
2024/02/27 10:36:43;;;;;;;14.17;13.67;;;;;;;;;;5015622;28;20467;-71
2024/02/27 10:39:10;;;;;;;14.70;14.20;;;;;;;;;;5015125;28;20500;-71
2024/02/27 10:41:39;;;;;;;14.47;13.97;;;;;;;;;;5014833;28;20549;-72
2024/02/27 10:44:07;;;;;;;14.57;14.07;;;;;;;;;;5017593;28;20526;-71
2024/02/27 10:46:36;;;;;;;14.83;14.33;;;;;;;;;;5016557;28;20477;-72
2024/02/27 10:49:03;;;;;;;14.40;13.90;;;;;;;;;;5015326;28;20989;-71
2024/02/27 10:51:31;;;;;;;14.93;14.43;;;;;;;;;;5015661;28;20856;-73
2024/02/27 10:53:59;;;;;;;14.87;14.37;;;;;;;;;;5015339;28;21069;-71
2024/02/27 10:56:26;;;;;;;14.73;14.23;;;;;;;;;;5013358;28;20474;-71
2024/02/27 10:58:54;;;;;;;14.50;14.00;;;;;;;;;;5016737;28;20471;-71
2024/02/27 11:01:21;;;;;;;14.33;13.83;;;;;;;;;;5016357;28;20493;-70
2024/02/27 11:03:51;;;;;;;14.60;14.10;;;;;;;;;;5014824;28;20483;-70
2024/02/27 11:06:21;;;;;;;15.10;14.50;;;;;;;;;;5013914;28;20835;-71
2024/02/27 11:08:51;;;;;;;15.10;14.50;;;;;;;;;;5016165;28;20541;-71
2024/02/27 11:11:20;;;;;;;14.40;13.90;;;;;;;;;;5016291;28;20461;-71
2024/02/27 11:13:48;;;;;;;14.30;13.80;;;;;;;;;;5017023;28;20564;-70
2024/02/27 11:16:15;;;;;;;14.37;13.87;;;;;;;;;;5013219;28;20469;-71
2024/02/27 11:18:46;;;;;;;14.80;14.30;;;;;;;;;;5013865;28;20472;-71
2024/02/27 11:21:14;;;;;;;14.87;14.37;;;;;;;;;;5014726;28;20463;-73
2024/02/27 11:23:42;;;;;;;15.07;14.50;;;;;;;;;;5014091;28;21166;-72
2024/02/27 11:26:09;;;;;;;14.93;14.37;;;;;;;;;;5011823;28;20468;-71
2024/02/27 11:28:40;;;;;;;14.70;14.20;;;;;;;;;;5015505;28;20496;-72
2024/02/27 11:31:08;;;;;;;14.93;14.43;;;;;;;;;;5014474;28;20485;-71
2024/02/27 11:33:43;;;;;;;14.80;14.30;;;;;;;;;;5016364;28;20464;-71
2024/02/27 11:36:11;;;;;;;14.87;14.37;;;;;;;;;;5014874;28;20934;-71
2024/02/27 11:38:38;;;;;;;15.10;14.50;;;;;;;;;;5015104;28;20827;-71
2024/02/27 11:41:05;;;;;;;14.77;14.27;;;;;;;;;;5015687;28;20468;-72
2024/02/27 11:43:33;;;;;;;14.57;14.07;;;;;;;;;;5015814;28;20472;-70
2024/02/27 11:46:28;;;;;;;14.80;14.30;;;;;;;;;;5017110;28;20463;-71
2024/02/27 11:48:55;;;;;;;14.30;13.80;;;;;;;;;;5013337;28;21167;-73
2024/02/27 11:51:25;;;;;;;14.40;13.90;;;;;;;;;;5013131;28;20920;-70
2024/02/27 11:53:53;;;;;;;14.47;13.97;;;;;;;;;;5014597;28;20833;-70
2024/02/27 11:56:20;;;;;;;14.63;14.13;;;;;;;;;;5013511;28;20473;-70
2024/02/27 11:58:48;;;;;;;14.27;13.77;;;;;;;;;;5015852;28;20477;-71
2024/02/27 12:01:18;;;;;;;14.37;13.87;;;;;;;;;;5012550;28;20525;-71
2024/02/27 12:03:45;;;;;;;15.37;14.77;;;;;;;;;;5013615;28;21001;-72
2024/02/27 12:06:12;;;;;;;14.47;13.97;;;;;;;;;;5014083;28;20475;-71
2024/02/27 12:08:45;;;;;;;15.20;14.60;;;;;;;;;;5013497;28;20499;-70
2024/02/27 12:11:12;;;;;;;14.83;14.33;;;;;;;;;;5014439;28;21055;-71
2024/02/27 12:13:39;;;;;;;14.70;14.20;;;;;;;;;;5010883;28;20470;-72
2024/02/27 12:16:07;;;;;;;14.60;14.10;;;;;;;;;;5015106;28;20470;-70
2024/02/27 12:18:36;;;;;;;14.60;14.10;;;;;;;;;;5013918;28;20553;-70
2024/02/27 12:21:03;;;;;;;14.63;14.13;;;;;;;;;;5013167;28;20923;-70
2024/02/27 12:23:31;;;;;;;14.53;14.03;;;;;;;;;;5009962;28;20473;-70
2024/02/27 12:25:59;;;;;;;14.47;13.97;;;;;;;;;;5014556;28;20473;-71
2024/02/27 12:28:26;;;;;;;14.77;14.27;;;;;;;;;;5015645;28;20483;-71
2024/02/27 12:30:53;;;;;;;14.43;13.93;;;;;;;;;;5014397;28;20473;-69
2024/02/27 12:33:22;;;;;;;14.60;14.10;;;;;;;;;;5011579;28;21066;-70
2024/02/27 12:35:50;;;;;;;14.43;13.93;;;;;;;;;;5014101;28;20462;-70
2024/02/27 12:38:17;;;;;;;14.57;14.07;;;;;;;;;;5010337;28;20479;-72
2024/02/27 12:40:45;;;;;;;15.77;15.17;;;;;;;;;;5013728;28;20553;-70
2024/02/27 12:43:13;;;;;;;15.00;14.40;;;;;;;;;;5014154;28;20469;-71
2024/02/27 12:45:40;;;;;;;14.50;14.00;;;;;;;;;;5014125;28;20994;-70
2024/02/27 12:48:07;;;;;;;14.63;14.13;;;;;;;;;;5014084;28;20466;-70
2024/02/27 12:50:35;;;;;;;14.40;13.90;;;;;;;;;;5016828;28;20503;-71
2024/02/27 12:53:05;;;;;;;14.40;13.90;;;;;;;;;;5014501;28;20462;-72
2024/02/27 12:55:32;;;;;;;14.40;13.90;;;;;;;;;;5011969;28;20461;-72
2024/02/27 12:58:00;;;;;;;14.60;14.10;;;;;;;;;;5009852;28;20570;-69
2024/02/27 13:00:31;;;;;;;14.07;13.57;;;;;;;;;;5014152;28;20493;-70
2024/02/27 13:02:58;;;;;;;13.90;13.40;;;;;;;;;;5013946;28;20474;-70
2024/02/27 13:05:26;;;;;;;13.80;13.30;;;;;;;;;;5016091;28;20469;-71
2024/02/27 13:07:53;;;;;;;13.43;13.03;;;;;;;;;;5012463;28;20472;-72
2024/02/27 13:10:22;;;;;;;13.67;13.23;;;;;;;;;;5014465;28;20497;-70
2024/02/27 13:13:04;;;;;;;13.83;13.33;;;;;;;;;;5013344;28;20473;-71
2024/02/27 13:15:31;;;;;;;13.87;13.37;;;;;;;;;;5011178;28;20467;-71
2024/02/27 13:17:58;;;;;;;13.90;13.40;;;;;;;;;;5014178;28;20470;-71
2024/02/27 13:20:26;;;;;;;14.10;13.60;;;;;;;;;;5015805;28;20959;-70
2024/02/27 13:22:53;;;;;;;13.83;13.37;;;;;;;;;;5014031;28;20506;-72
2024/02/27 13:25:22;;;;;;;14.40;13.90;;;;;;;;;;5012483;28;20473;-70
2024/02/27 13:27:49;;;;;;;13.90;13.40;;;;;;;;;;5009413;28;21045;-73
2024/02/27 13:30:16;;;;;;;14.47;13.97;;;;;;;;;;5014847;28;21279;-70
2024/02/27 13:32:43;;;;;;;13.67;13.20;;;;;;;;;;5013813;28;20475;-71
2024/02/27 13:35:10;;;;;;;14.57;14.07;;;;;;;;;;5014402;28;20831;-70
2024/02/27 13:37:37;;;;;;;14.10;13.60;;;;;;;;;;5013867;28;20931;-70
2024/02/27 13:40:05;;;;;;;14.20;13.70;;;;;;;;;;5012844;28;20468;-70
2024/02/27 13:42:34;;;;;;;14.80;14.30;;;;;;;;;;5010899;28;20467;-70
2024/02/27 13:45:01;;;;;;;14.30;13.80;;;;;;;;;;5012251;28;20469;-70
2024/02/27 13:47:28;;;;;;;14.40;13.90;;;;;;;;;;5012735;28;20478;-70
2024/02/27 13:49:57;;;;;;;14.50;14.00;;;;;;;;;;5014778;28;20504;-70
2024/02/27 13:52:25;;;;;;;14.17;13.67;;;;;;;;;;5011481;28;21067;-72
2024/02/27 13:54:52;;;;;;;14.33;13.83;;;;;;;;;;5012181;28;20467;-71
2024/02/27 13:57:19;;;;;;;14.57;14.07;;;;;;;;;;5015244;28;20465;-70
2024/02/27 13:59:48;;;;;;;14.23;13.73;;;;;;;;;;5012286;28;20984;-72
2024/02/27 14:02:15;;;;;;;14.47;13.97;;;;;;;;;;5016178;28;20475;-71
2024/02/27 14:04:43;;;;;;;14.20;13.70;;;;;;;;;;5018217;28;20473;-71
2024/02/27 14:07:10;;;;;;;14.90;14.30;;;;;;;;;;5019189;28;20475;-71
2024/02/27 14:09:37;;;;;;;14.70;14.20;;;;;;;;;;5013405;28;20506;-71
2024/02/27 14:12:04;;;;;;;14.23;13.73;;;;;;;;;;5017743;28;20462;-71
2024/02/27 14:14:33;;;;;;;14.00;13.50;;;;;;;;;;5012781;28;20809;-70
2024/02/27 14:17:02;;;;;;;14.27;13.77;;;;;;;;;;5018480;28;20469;-70
2024/02/27 14:19:29;;;;;;;13.67;13.27;;;;;;;;;;5018299;28;20903;-70
2024/02/27 14:21:56;;;;;;;14.10;13.60;;;;;;;;;;5017703;28;20457;-71
2024/02/27 14:24:24;;;;;;;14.63;14.13;;;;;;;;;;5013775;28;21208;-71
2024/02/27 14:26:52;;;;;;;13.57;13.17;;;;;;;;;;5017547;28;20478;-70
2024/02/27 14:29:19;;;;;;;14.00;13.50;;;;;;;;;;5017323;28;20494;-70
2024/02/27 14:31:46;;;;;;;14.57;14.07;;;;;;;;;;5017439;28;20973;-71
2024/02/27 14:34:15;;;;;;;14.40;13.90;;;;;;;;;;5013012;28;20467;-70
2024/02/27 14:36:43;;;;;;;14.90;14.40;;;;;;;;;;5017471;28;20957;-70